sensor_id;sensor_type;location;lat;lon;timestamp;pressure;altitude;pressure_sealevel;temperature;humidity
11682;BME280;5897;42.640;23.310;2022-10-16T00:01:08;94517.91;;;9.01;95.63
11682;BME280;5897;42.640;23.310;2022-10-16T00:03:36;94537.50;;;9.01;96.55
11682;BME280;5897;42.640;23.310;2022-10-16T00:06:04;94542.34;;;8.80;98.82
11682;BME280;5897;42.640;23.310;2022-10-16T00:08:31;94525.44;;;8.79;100.00
11682;BME280;5897;42.640;23.310;2022-10-16T00:11:01;94531.41;;;8.97;99.23
11682;BME280;5897;42.640;23.310;2022-10-16T00:13:28;94538.16;;;9.12;99.32
11682;BME280;5897;42.640;23.310;2022-10-16T00:15:56;94535.41;;;9.19;97.03
11682;BME280;5897;42.640;23.310;2022-10-16T00:18:23;94546.94;;;9.20;97.24
11682;BME280;5897;42.640;23.310;2022-10-16T00:20:50;94537.31;;;9.19;97.98
11682;BME280;5897;42.640;23.310;2022-10-16T00:23:17;94537.97;;;9.30;95.65
11682;BME280;5897;42.640;23.310;2022-10-16T00:25:44;94531.63;;;9.10;96.47
11682;BME280;5897;42.640;23.310;2022-10-16T00:28:12;94544.25;;;9.20;97.21
11682;BME280;5897;42.640;23.310;2022-10-16T00:30:40;94548.97;;;9.09;98.33
11682;BME280;5897;42.640;23.310;2022-10-16T00:33:06;94559.00;;;9.08;97.32
11682;BME280;5897;42.640;23.310;2022-10-16T00:35:33;94526.50;;;8.89;97.92
11682;BME280;5897;42.640;23.310;2022-10-16T00:38:00;94557.88;;;9.06;98.39
11682;BME280;5897;42.640;23.310;2022-10-16T00:40:27;94560.53;;;9.09;98.38
11682;BME280;5897;42.640;23.310;2022-10-16T00:42:54;94539.41;;;9.04;97.84
11682;BME280;5897;42.640;23.310;2022-10-16T00:45:23;94557.69;;;9.23;95.92
11682;BME280;5897;42.640;23.310;2022-10-16T00:47:51;94552.84;;;9.08;96.31
11682;BME280;5897;42.640;23.310;2022-10-16T00:50:22;94551.84;;;8.95;97.59
11682;BME280;5897;42.640;23.310;2022-10-16T00:52:51;94546.84;;;8.93;98.42
11682;BME280;5897;42.640;23.310;2022-10-16T00:55:19;94550.00;;;8.85;99.47
11682;BME280;5897;42.640;23.310;2022-10-16T00:57:46;94535.72;;;8.91;99.32
11682;BME280;5897;42.640;23.310;2022-10-16T01:00:16;94544.88;;;8.97;97.89
11682;BME280;5897;42.640;23.310;2022-10-16T01:02:52;94553.47;;;8.85;97.57
11682;BME280;5897;42.640;23.310;2022-10-16T01:05:19;94554.69;;;8.77;98.77
11682;BME280;5897;42.640;23.310;2022-10-16T01:07:55;94562.72;;;8.81;98.42
11682;BME280;5897;42.640;23.310;2022-10-16T01:10:30;94557.75;;;8.79;98.59
11682;BME280;5897;42.640;23.310;2022-10-16T01:13:04;94551.31;;;8.66;97.09
11682;BME280;5897;42.640;23.310;2022-10-16T01:15:35;94569.34;;;8.73;97.23
11682;BME280;5897;42.640;23.310;2022-10-16T01:18:08;94552.63;;;8.51;98.72
11682;BME280;5897;42.640;23.310;2022-10-16T01:20:42;94553.34;;;8.55;99.63
11682;BME280;5897;42.640;23.310;2022-10-16T01:23:22;94546.88;;;8.46;100.00
11682;BME280;5897;42.640;23.310;2022-10-16T01:26:13;94547.91;;;8.62;100.00
11682;BME280;5897;42.640;23.310;2022-10-16T01:28:51;94532.44;;;8.73;100.00
11682;BME280;5897;42.640;23.310;2022-10-16T01:31:23;94548.56;;;8.77;96.82
11682;BME280;5897;42.640;23.310;2022-10-16T01:33:57;94542.47;;;8.69;97.75
11682;BME280;5897;42.640;23.310;2022-10-16T01:36:29;94544.72;;;8.74;98.83
11682;BME280;5897;42.640;23.310;2022-10-16T01:39:01;94537.63;;;8.91;97.57
11682;BME280;5897;42.640;23.310;2022-10-16T01:41:31;94548.91;;;8.79;96.65
11682;BME280;5897;42.640;23.310;2022-10-16T01:44:03;94543.63;;;8.68;97.86
11682;BME280;5897;42.640;23.310;2022-10-16T01:46:33;94546.22;;;8.79;97.77
11682;BME280;5897;42.640;23.310;2022-10-16T01:49:01;94545.44;;;8.78;97.40
11682;BME280;5897;42.640;23.310;2022-10-16T01:51:29;94538.59;;;8.70;98.52
11682;BME280;5897;42.640;23.310;2022-10-16T01:53:58;94551.00;;;8.61;98.96
11682;BME280;5897;42.640;23.310;2022-10-16T01:56:27;94554.81;;;8.63;99.60
11682;BME280;5897;42.640;23.310;2022-10-16T01:58:57;94547.38;;;8.78;98.17
11682;BME280;5897;42.640;23.310;2022-10-16T02:01:29;94552.78;;;8.78;96.63
11682;BME280;5897;42.640;23.310;2022-10-16T02:04:01;94556.94;;;8.82;97.17
11682;BME280;5897;42.640;23.310;2022-10-16T02:06:29;94547.13;;;8.62;97.92
11682;BME280;5897;42.640;23.310;2022-10-16T02:08:56;94558.03;;;8.88;97.74
11682;BME280;5897;42.640;23.310;2022-10-16T02:11:24;94566.78;;;8.99;97.43
11682;BME280;5897;42.640;23.310;2022-10-16T02:13:54;94559.06;;;9.01;97.27
11682;BME280;5897;42.640;23.310;2022-10-16T02:16:32;94565.13;;;9.12;97.02
11682;BME280;5897;42.640;23.310;2022-10-16T02:18:59;94578.91;;;9.21;96.40
11682;BME280;5897;42.640;23.310;2022-10-16T02:21:28;94573.91;;;9.20;96.02
11682;BME280;5897;42.640;23.310;2022-10-16T02:24:00;94584.13;;;9.35;94.58
11682;BME280;5897;42.640;23.310;2022-10-16T02:26:33;94586.47;;;9.33;94.38
11682;BME280;5897;42.640;23.310;2022-10-16T02:29:06;94592.22;;;9.35;94.11
11682;BME280;5897;42.640;23.310;2022-10-16T02:31:41;94592.22;;;9.35;93.52
11682;BME280;5897;42.640;23.310;2022-10-16T02:34:08;94583.72;;;9.37;93.85
11682;BME280;5897;42.640;23.310;2022-10-16T02:36:38;94586.03;;;9.38;93.94
11682;BME280;5897;42.640;23.310;2022-10-16T02:39:06;94581.41;;;9.39;92.86
11682;BME280;5897;42.640;23.310;2022-10-16T02:41:34;94576.50;;;9.30;92.75
11682;BME280;5897;42.640;23.310;2022-10-16T02:44:01;94583.00;;;9.33;93.66
11682;BME280;5897;42.640;23.310;2022-10-16T02:46:28;94589.50;;;9.39;92.62
11682;BME280;5897;42.640;23.310;2022-10-16T02:48:56;94583.41;;;9.31;92.74
11682;BME280;5897;42.640;23.310;2022-10-16T02:51:22;94594.19;;;9.31;92.79
11682;BME280;5897;42.640;23.310;2022-10-16T02:53:49;94595.41;;;9.23;93.11
11682;BME280;5897;42.640;23.310;2022-10-16T02:56:16;94590.88;;;9.17;93.80
11682;BME280;5897;42.640;23.310;2022-10-16T02:58:43;94590.44;;;9.22;93.60
11682;BME280;5897;42.640;23.310;2022-10-16T03:01:09;94604.25;;;9.27;94.47
11682;BME280;5897;42.640;23.310;2022-10-16T03:03:38;94600.38;;;9.28;94.87
11682;BME280;5897;42.640;23.310;2022-10-16T03:06:06;94597.31;;;9.26;94.94
11682;BME280;5897;42.640;23.310;2022-10-16T03:08:32;94601.91;;;9.29;94.57
11682;BME280;5897;42.640;23.310;2022-10-16T03:10:59;94577.44;;;9.13;93.32
11682;BME280;5897;42.640;23.310;2022-10-16T03:13:26;94601.25;;;9.22;93.11
11682;BME280;5897;42.640;23.310;2022-10-16T03:15:53;94605.09;;;9.17;93.69
11682;BME280;5897;42.640;23.310;2022-10-16T03:18:19;94609.69;;;9.24;93.15
11682;BME280;5897;42.640;23.310;2022-10-16T03:20:46;94605.88;;;9.18;93.09
11682;BME280;5897;42.640;23.310;2022-10-16T03:23:14;94618.28;;;9.12;93.58
11682;BME280;5897;42.640;23.310;2022-10-16T03:25:41;94612.09;;;9.11;93.84
11682;BME280;5897;42.640;23.310;2022-10-16T03:28:08;94621.25;;;9.21;92.43
11682;BME280;5897;42.640;23.310;2022-10-16T03:30:34;94621.72;;;9.12;92.26
11682;BME280;5897;42.640;23.310;2022-10-16T03:33:01;94613.00;;;8.98;92.15
11682;BME280;5897;42.640;23.310;2022-10-16T03:35:28;94619.16;;;8.98;92.80
11682;BME280;5897;42.640;23.310;2022-10-16T03:37:55;94623.03;;;8.97;92.06
11682;BME280;5897;42.640;23.310;2022-10-16T03:40:23;94622.78;;;8.81;92.54
11682;BME280;5897;42.640;23.310;2022-10-16T03:42:49;94621.31;;;8.73;93.22
11682;BME280;5897;42.640;23.310;2022-10-16T03:45:17;94614.06;;;8.67;92.59
11682;BME280;5897;42.640;23.310;2022-10-16T03:47:43;94619.44;;;8.67;93.12
11682;BME280;5897;42.640;23.310;2022-10-16T03:50:10;94612.59;;;8.55;94.04
11682;BME280;5897;42.640;23.310;2022-10-16T03:52:37;94609.88;;;8.55;94.51
11682;BME280;5897;42.640;23.310;2022-10-16T03:55:04;94606.88;;;8.50;94.58
11682;BME280;5897;42.640;23.310;2022-10-16T03:57:32;94602.03;;;8.24;94.88
11682;BME280;5897;42.640;23.310;2022-10-16T03:59:59;94609.03;;;8.07;97.19
11682;BME280;5897;42.640;23.310;2022-10-16T04:02:26;94605.25;;;8.01;98.45
11682;BME280;5897;42.640;23.310;2022-10-16T04:04:53;94604.91;;;7.89;99.51
11682;BME280;5897;42.640;23.310;2022-10-16T04:07:19;94599.66;;;7.64;100.00
11682;BME280;5897;42.640;23.310;2022-10-16T04:09:46;94605.44;;;7.63;100.00
11682;BME280;5897;42.640;23.310;2022-10-16T04:12:13;94602.75;;;7.56;100.00
11682;BME280;5897;42.640;23.310;2022-10-16T04:14:41;94602.38;;;7.57;100.00
11682;BME280;5897;42.640;23.310;2022-10-16T04:17:08;94606.25;;;7.49;100.00
11682;BME280;5897;42.640;23.310;2022-10-16T04:19:35;94608.53;;;7.58;100.00
11682;BME280;5897;42.640;23.310;2022-10-16T04:22:02;94585.50;;;7.46;100.00
11682;BME280;5897;42.640;23.310;2022-10-16T04:24:29;94614.63;;;7.62;100.00
11682;BME280;5897;42.640;23.310;2022-10-16T04:26:56;94608.41;;;7.79;100.00
11682;BME280;5897;42.640;23.310;2022-10-16T04:29:23;94624.47;;;7.96;100.00
11682;BME280;5897;42.640;23.310;2022-10-16T04:31:51;94616.78;;;7.95;100.00
11682;BME280;5897;42.640;23.310;2022-10-16T04:34:18;94596.38;;;8.01;100.00
11682;BME280;5897;42.640;23.310;2022-10-16T04:36:46;94614.34;;;8.21;100.00
11682;BME280;5897;42.640;23.310;2022-10-16T04:39:13;94626.28;;;8.20;100.00
11682;BME280;5897;42.640;23.310;2022-10-16T04:41:40;94625.53;;;8.20;100.00
11682;BME280;5897;42.640;23.310;2022-10-16T04:44:07;94625.91;;;8.18;100.00
11682;BME280;5897;42.640;23.310;2022-10-16T04:46:34;94627.84;;;8.14;100.00
11682;BME280;5897;42.640;23.310;2022-10-16T04:49:02;94632.81;;;8.19;99.99
11682;BME280;5897;42.640;23.310;2022-10-16T04:51:28;94635.22;;;8.00;99.49
11682;BME280;5897;42.640;23.310;2022-10-16T04:53:55;94638.66;;;8.07;99.96
11682;BME280;5897;42.640;23.310;2022-10-16T04:56:22;94641.69;;;8.16;98.49
11682;BME280;5897;42.640;23.310;2022-10-16T04:58:49;94640.88;;;8.23;98.68
11682;BME280;5897;42.640;23.310;2022-10-16T05:01:16;94651.28;;;8.24;97.43
11682;BME280;5897;42.640;23.310;2022-10-16T05:03:43;94655.06;;;8.30;97.04
11682;BME280;5897;42.640;23.310;2022-10-16T05:06:11;94655.91;;;8.20;96.93
11682;BME280;5897;42.640;23.310;2022-10-16T05:08:38;94659.31;;;8.28;97.48
11682;BME280;5897;42.640;23.310;2022-10-16T05:11:04;94652.75;;;8.32;98.38
11682;BME280;5897;42.640;23.310;2022-10-16T05:13:31;94658.53;;;8.34;98.51
11682;BME280;5897;42.640;23.310;2022-10-16T05:15:58;94660.75;;;8.46;98.78
11682;BME280;5897;42.640;23.310;2022-10-16T05:18:24;94663.41;;;8.50;98.64
11682;BME280;5897;42.640;23.310;2022-10-16T05:20:51;94661.44;;;8.57;99.03
11682;BME280;5897;42.640;23.310;2022-10-16T05:23:19;94664.88;;;8.65;99.19
11682;BME280;5897;42.640;23.310;2022-10-16T05:25:52;94668.94;;;8.83;97.59
11682;BME280;5897;42.640;23.310;2022-10-16T05:28:19;94664.63;;;8.93;97.00
11682;BME280;5897;42.640;23.310;2022-10-16T05:30:46;94663.06;;;8.95;96.81
11682;BME280;5897;42.640;23.310;2022-10-16T05:33:13;94669.59;;;8.98;96.86
11682;BME280;5897;42.640;23.310;2022-10-16T05:35:39;94670.69;;;9.07;96.95
11682;BME280;5897;42.640;23.310;2022-10-16T05:38:06;94670.59;;;9.18;96.39
11682;BME280;5897;42.640;23.310;2022-10-16T05:40:34;94664.72;;;9.26;96.12
11682;BME280;5897;42.640;23.310;2022-10-16T05:43:01;94665.00;;;9.35;95.92
11682;BME280;5897;42.640;23.310;2022-10-16T05:45:28;94674.59;;;9.43;94.61
11682;BME280;5897;42.640;23.310;2022-10-16T05:47:55;94679.84;;;9.54;95.38
11682;BME280;5897;42.640;23.310;2022-10-16T05:50:21;94668.97;;;9.64;95.43
11682;BME280;5897;42.640;23.310;2022-10-16T05:52:48;94678.38;;;9.83;95.70
11682;BME280;5897;42.640;23.310;2022-10-16T05:55:15;94682.06;;;9.99;95.67
11682;BME280;5897;42.640;23.310;2022-10-16T05:57:43;94682.63;;;10.17;94.97
11682;BME280;5897;42.640;23.310;2022-10-16T06:00:10;94688.66;;;10.28;94.16
11682;BME280;5897;42.640;23.310;2022-10-16T06:02:37;94692.69;;;10.47;92.97
11682;BME280;5897;42.640;23.310;2022-10-16T06:05:04;94700.91;;;10.63;93.09
11682;BME280;5897;42.640;23.310;2022-10-16T06:07:34;94703.44;;;10.77;91.30
11682;BME280;5897;42.640;23.310;2022-10-16T06:10:01;94709.28;;;10.98;89.54
11682;BME280;5897;42.640;23.310;2022-10-16T06:12:29;94714.84;;;11.14;89.01
11682;BME280;5897;42.640;23.310;2022-10-16T06:14:57;94711.56;;;11.26;86.46
11682;BME280;5897;42.640;23.310;2022-10-16T06:17:24;94718.25;;;11.41;85.85
11682;BME280;5897;42.640;23.310;2022-10-16T06:19:50;94719.25;;;11.51;85.35
11682;BME280;5897;42.640;23.310;2022-10-16T06:22:17;94722.84;;;11.67;84.45
11682;BME280;5897;42.640;23.310;2022-10-16T06:24:44;94723.38;;;11.82;83.89
11682;BME280;5897;42.640;23.310;2022-10-16T06:27:11;94721.16;;;11.96;82.74
11682;BME280;5897;42.640;23.310;2022-10-16T06:29:38;94727.38;;;12.16;80.53
11682;BME280;5897;42.640;23.310;2022-10-16T06:32:06;94728.25;;;12.29;80.39
11682;BME280;5897;42.640;23.310;2022-10-16T06:34:33;94723.81;;;12.38;79.36
11682;BME280;5897;42.640;23.310;2022-10-16T06:36:59;94729.94;;;12.42;77.71
11682;BME280;5897;42.640;23.310;2022-10-16T06:39:26;94721.22;;;12.51;78.47
11682;BME280;5897;42.640;23.310;2022-10-16T06:41:53;94735.88;;;12.73;77.57
11682;BME280;5897;42.640;23.310;2022-10-16T06:44:20;94731.22;;;13.09;87.09
11682;BME280;5897;42.640;23.310;2022-10-16T06:46:46;94726.22;;;13.55;92.66
11682;BME280;5897;42.640;23.310;2022-10-16T06:49:15;94731.34;;;13.98;91.98
11682;BME280;5897;42.640;23.310;2022-10-16T06:51:46;94738.38;;;14.40;88.16
11682;BME280;5897;42.640;23.310;2022-10-16T06:54:15;94742.28;;;14.39;74.24
11682;BME280;5897;42.640;23.310;2022-10-16T06:56:43;94747.91;;;14.73;75.78
11682;BME280;5897;42.640;23.310;2022-10-16T06:59:10;94754.47;;;15.00;71.29
11682;BME280;5897;42.640;23.310;2022-10-16T07:01:36;94756.56;;;15.09;69.33
11682;BME280;5897;42.640;23.310;2022-10-16T07:04:03;94756.38;;;15.16;65.67
11682;BME280;5897;42.640;23.310;2022-10-16T07:06:33;94759.28;;;15.09;65.27
11682;BME280;5897;42.640;23.310;2022-10-16T07:09:02;94760.41;;;15.36;65.84
11682;BME280;5897;42.640;23.310;2022-10-16T07:11:29;94756.03;;;15.64;65.73
11682;BME280;5897;42.640;23.310;2022-10-16T07:13:56;94769.41;;;15.83;63.56
11682;BME280;5897;42.640;23.310;2022-10-16T07:16:24;94757.56;;;15.99;63.62
11682;BME280;5897;42.640;23.310;2022-10-16T07:18:53;94749.16;;;16.06;61.25
11682;BME280;5897;42.640;23.310;2022-10-16T07:21:24;94768.72;;;16.26;59.46
11682;BME280;5897;42.640;23.310;2022-10-16T07:23:54;94766.00;;;16.26;59.03
11682;BME280;5897;42.640;23.310;2022-10-16T07:26:22;94769.34;;;16.42;59.42
11682;BME280;5897;42.640;23.310;2022-10-16T07:28:49;94775.69;;;16.61;58.04
11682;BME280;5897;42.640;23.310;2022-10-16T07:31:18;94769.72;;;16.53;58.20
11682;BME280;5897;42.640;23.310;2022-10-16T07:33:46;94770.63;;;16.72;57.40
11682;BME280;5897;42.640;23.310;2022-10-16T07:36:14;94779.63;;;16.81;56.50
11682;BME280;5897;42.640;23.310;2022-10-16T07:38:41;94770.31;;;16.91;57.04
11682;BME280;5897;42.640;23.310;2022-10-16T07:41:12;94772.84;;;17.16;56.65
11682;BME280;5897;42.640;23.310;2022-10-16T07:43:39;94768.22;;;16.95;54.70
11682;BME280;5897;42.640;23.310;2022-10-16T07:46:06;94771.09;;;17.01;54.29
11682;BME280;5897;42.640;23.310;2022-10-16T07:48:34;94780.34;;;17.25;54.20
11682;BME280;5897;42.640;23.310;2022-10-16T07:51:02;94767.59;;;17.31;54.51
11682;BME280;5897;42.640;23.310;2022-10-16T07:53:30;94776.38;;;17.47;52.76
11682;BME280;5897;42.640;23.310;2022-10-16T07:55:58;94778.97;;;17.51;52.13
11682;BME280;5897;42.640;23.310;2022-10-16T07:58:26;94760.44;;;17.46;52.58
11682;BME280;5897;42.640;23.310;2022-10-16T08:00:53;94778.91;;;17.42;52.11
11682;BME280;5897;42.640;23.310;2022-10-16T08:03:20;94776.88;;;17.55;52.64
11682;BME280;5897;42.640;23.310;2022-10-16T08:05:47;94783.84;;;17.56;52.98
11682;BME280;5897;42.640;23.310;2022-10-16T08:08:15;94783.56;;;17.63;52.52
11682;BME280;5897;42.640;23.310;2022-10-16T08:10:42;94778.53;;;17.31;52.68
11682;BME280;5897;42.640;23.310;2022-10-16T08:13:09;94786.22;;;17.45;52.73
11682;BME280;5897;42.640;23.310;2022-10-16T08:15:38;94777.66;;;17.73;51.89
11682;BME280;5897;42.640;23.310;2022-10-16T08:18:05;94778.16;;;17.81;50.96
11682;BME280;5897;42.640;23.310;2022-10-16T08:20:33;94774.50;;;17.75;51.49
11682;BME280;5897;42.640;23.310;2022-10-16T08:23:00;94775.06;;;17.61;51.27
11682;BME280;5897;42.640;23.310;2022-10-16T08:25:27;94775.84;;;17.79;50.23
11682;BME280;5897;42.640;23.310;2022-10-16T08:27:54;94766.47;;;17.89;50.16
11682;BME280;5897;42.640;23.310;2022-10-16T08:30:23;94782.91;;;17.98;49.15
11682;BME280;5897;42.640;23.310;2022-10-16T08:32:52;94769.22;;;18.07;48.47
11682;BME280;5897;42.640;23.310;2022-10-16T08:35:18;94760.91;;;18.20;48.79
11682;BME280;5897;42.640;23.310;2022-10-16T08:37:45;94771.53;;;18.27;48.89
11682;BME280;5897;42.640;23.310;2022-10-16T08:40:17;94773.25;;;18.42;48.64
11682;BME280;5897;42.640;23.310;2022-10-16T08:43:16;94777.53;;;18.61;47.44
11682;BME280;5897;42.640;23.310;2022-10-16T08:45:56;94773.56;;;18.71;47.23
11682;BME280;5897;42.640;23.310;2022-10-16T08:48:34;94776.13;;;18.93;45.95
11682;BME280;5897;42.640;23.310;2022-10-16T08:51:03;94773.81;;;18.91;46.25
11682;BME280;5897;42.640;23.310;2022-10-16T08:53:36;94773.50;;;19.07;46.26
11682;BME280;5897;42.640;23.310;2022-10-16T08:56:06;94769.81;;;19.28;44.74
11682;BME280;5897;42.640;23.310;2022-10-16T08:58:33;94782.41;;;19.44;43.26
11682;BME280;5897;42.640;23.310;2022-10-16T09:01:01;94786.03;;;19.50;43.75
11682;BME280;5897;42.640;23.310;2022-10-16T09:03:43;94785.47;;;19.37;40.91
11682;BME280;5897;42.640;23.310;2022-10-16T09:06:26;94787.34;;;19.63;38.79
11682;BME280;5897;42.640;23.310;2022-10-16T09:09:08;94783.25;;;19.59;40.01
11682;BME280;5897;42.640;23.310;2022-10-16T09:11:46;94783.50;;;19.70;40.81
11682;BME280;5897;42.640;23.310;2022-10-16T09:14:34;94780.97;;;19.90;39.18
11682;BME280;5897;42.640;23.310;2022-10-16T09:17:20;94776.72;;;19.89;38.50
11682;BME280;5897;42.640;23.310;2022-10-16T09:19:56;94772.97;;;20.10;38.36
11682;BME280;5897;42.640;23.310;2022-10-16T09:22:27;94774.97;;;19.77;39.41
11682;BME280;5897;42.640;23.310;2022-10-16T09:24:59;94766.09;;;20.05;39.39
11682;BME280;5897;42.640;23.310;2022-10-16T09:27:27;94772.72;;;20.22;38.86
11682;BME280;5897;42.640;23.310;2022-10-16T09:29:53;94778.16;;;20.31;38.29
11682;BME280;5897;42.640;23.310;2022-10-16T09:32:21;94779.94;;;20.58;36.83
11682;BME280;5897;42.640;23.310;2022-10-16T09:34:52;94784.97;;;20.59;35.89
11682;BME280;5897;42.640;23.310;2022-10-16T09:37:22;94772.31;;;20.62;36.37
11682;BME280;5897;42.640;23.310;2022-10-16T09:39:52;94773.66;;;20.81;35.29
11682;BME280;5897;42.640;23.310;2022-10-16T09:42:20;94769.84;;;20.78;35.67
11682;BME280;5897;42.640;23.310;2022-10-16T09:44:48;94772.78;;;21.13;35.02
11682;BME280;5897;42.640;23.310;2022-10-16T09:47:18;94771.22;;;20.97;34.88
11682;BME280;5897;42.640;23.310;2022-10-16T09:49:55;94766.97;;;21.40;34.95
11682;BME280;5897;42.640;23.310;2022-10-16T09:52:23;94759.47;;;21.55;34.73
11682;BME280;5897;42.640;23.310;2022-10-16T09:54:51;94757.91;;;21.83;32.65
11682;BME280;5897;42.640;23.310;2022-10-16T09:57:19;94749.53;;;21.92;33.49
11682;BME280;5897;42.640;23.310;2022-10-16T09:59:47;94754.94;;;22.21;32.34
11682;BME280;5897;42.640;23.310;2022-10-16T10:02:16;94761.59;;;22.34;32.73
11682;BME280;5897;42.640;23.310;2022-10-16T10:04:49;94750.56;;;22.49;32.08
11682;BME280;5897;42.640;23.310;2022-10-16T10:07:21;94758.25;;;22.65;32.38
11682;BME280;5897;42.640;23.310;2022-10-16T10:09:50;94754.47;;;22.82;32.67
11682;BME280;5897;42.640;23.310;2022-10-16T10:12:19;94751.22;;;22.84;31.97
11682;BME280;5897;42.640;23.310;2022-10-16T10:14:47;94747.84;;;23.00;32.14
11682;BME280;5897;42.640;23.310;2022-10-16T10:17:19;94747.22;;;23.36;30.93
11682;BME280;5897;42.640;23.310;2022-10-16T10:19:49;94746.47;;;23.35;30.88
11682;BME280;5897;42.640;23.310;2022-10-16T10:22:25;94748.84;;;22.97;30.86
11682;BME280;5897;42.640;23.310;2022-10-16T10:25:14;94749.84;;;23.50;30.00
11682;BME280;5897;42.640;23.310;2022-10-16T10:27:50;94743.66;;;23.30;29.59
11682;BME280;5897;42.640;23.310;2022-10-16T10:30:21;94735.03;;;23.48;30.26
11682;BME280;5897;42.640;23.310;2022-10-16T10:32:56;94742.84;;;23.86;29.30
11682;BME280;5897;42.640;23.310;2022-10-16T10:35:36;94739.84;;;24.26;28.96
11682;BME280;5897;42.640;23.310;2022-10-16T10:38:20;94728.81;;;24.37;28.16
11682;BME280;5897;42.640;23.310;2022-10-16T10:40:52;94725.63;;;24.49;27.98
11682;BME280;5897;42.640;23.310;2022-10-16T10:43:32;94719.88;;;24.05;28.37
11682;BME280;5897;42.640;23.310;2022-10-16T10:46:05;94723.63;;;24.55;28.28
11682;BME280;5897;42.640;23.310;2022-10-16T10:48:51;94701.63;;;24.77;27.68
11682;BME280;5897;42.640;23.310;2022-10-16T10:51:26;94715.50;;;25.16;26.99
11682;BME280;5897;42.640;23.310;2022-10-16T10:54:05;94714.53;;;25.46;26.93
11682;BME280;5897;42.640;23.310;2022-10-16T10:56:44;94708.50;;;25.70;26.35
11682;BME280;5897;42.640;23.310;2022-10-16T10:59:28;94711.72;;;25.96;25.83
11682;BME280;5897;42.640;23.310;2022-10-16T11:02:00;94688.81;;;26.06;25.08
11682;BME280;5897;42.640;23.310;2022-10-16T11:05:01;94714.47;;;26.07;24.61
11682;BME280;5897;42.640;23.310;2022-10-16T11:07:36;94697.84;;;26.07;24.18
11682;BME280;5897;42.640;23.310;2022-10-16T11:10:13;94704.31;;;26.37;25.25
11682;BME280;5897;42.640;23.310;2022-10-16T11:12:45;94694.63;;;26.71;24.51
11682;BME280;5897;42.640;23.310;2022-10-16T11:15:16;94694.72;;;26.95;24.07
11682;BME280;5897;42.640;23.310;2022-10-16T11:17:47;94695.84;;;27.21;23.42
11682;BME280;5897;42.640;23.310;2022-10-16T11:20:19;94692.13;;;27.43;23.75
11682;BME280;5897;42.640;23.310;2022-10-16T11:22:50;94692.63;;;27.47;22.68
11682;BME280;5897;42.640;23.310;2022-10-16T11:25:23;94686.50;;;27.54;21.51
11682;BME280;5897;42.640;23.310;2022-10-16T11:27:57;94685.38;;;27.38;21.21
11682;BME280;5897;42.640;23.310;2022-10-16T11:30:29;94682.06;;;27.40;21.31
11682;BME280;5897;42.640;23.310;2022-10-16T11:33:04;94683.16;;;27.31;21.37
11682;BME280;5897;42.640;23.310;2022-10-16T11:35:41;94682.97;;;27.53;21.05
11682;BME280;5897;42.640;23.310;2022-10-16T11:38:15;94679.53;;;27.42;20.96
11682;BME280;5897;42.640;23.310;2022-10-16T11:40:48;94679.53;;;27.42;21.30
11682;BME280;5897;42.640;23.310;2022-10-16T11:43:22;94679.97;;;27.75;20.91
11682;BME280;5897;42.640;23.310;2022-10-16T11:45:53;94688.16;;;27.68;20.91
11682;BME280;5897;42.640;23.310;2022-10-16T11:48:26;94685.03;;;28.01;19.83
11682;BME280;5897;42.640;23.310;2022-10-16T11:50:56;94683.03;;;28.01;20.34
11682;BME280;5897;42.640;23.310;2022-10-16T11:53:35;94680.94;;;28.07;20.28
11682;BME280;5897;42.640;23.310;2022-10-16T11:56:07;94683.53;;;28.24;20.08
11682;BME280;5897;42.640;23.310;2022-10-16T11:58:37;94679.63;;;28.32;19.80
11682;BME280;5897;42.640;23.310;2022-10-16T12:01:17;94684.13;;;28.41;19.93
11682;BME280;5897;42.640;23.310;2022-10-16T12:03:50;94687.88;;;28.43;19.71
11682;BME280;5897;42.640;23.310;2022-10-16T12:06:30;94687.09;;;28.67;19.67
11682;BME280;5897;42.640;23.310;2022-10-16T12:08:58;94677.97;;;28.85;18.70
11682;BME280;5897;42.640;23.310;2022-10-16T12:11:36;94677.81;;;28.77;19.49
11682;BME280;5897;42.640;23.310;2022-10-16T12:14:18;94678.34;;;28.94;19.28
11682;BME280;5897;42.640;23.310;2022-10-16T12:16:54;94681.00;;;29.05;18.74
11682;BME280;5897;42.640;23.310;2022-10-16T12:19:22;94683.19;;;28.94;19.67
11682;BME280;5897;42.640;23.310;2022-10-16T12:21:50;94679.63;;;28.75;20.13
11682;BME280;5897;42.640;23.310;2022-10-16T12:24:26;94673.84;;;28.73;20.10
11682;BME280;5897;42.640;23.310;2022-10-16T12:26:55;94669.72;;;28.61;20.78
11682;BME280;5897;42.640;23.310;2022-10-16T12:29:30;94678.97;;;28.50;20.83
11682;BME280;5897;42.640;23.310;2022-10-16T12:31:58;94683.13;;;28.81;20.28
11682;BME280;5897;42.640;23.310;2022-10-16T12:34:28;94684.03;;;29.07;19.60
11682;BME280;5897;42.640;23.310;2022-10-16T12:37:08;94685.50;;;29.27;19.41
11682;BME280;5897;42.640;23.310;2022-10-16T12:39:36;94683.31;;;29.51;18.72
11682;BME280;5897;42.640;23.310;2022-10-16T12:42:19;94686.53;;;29.42;18.50
11682;BME280;5897;42.640;23.310;2022-10-16T12:44:46;94687.44;;;29.32;18.63
11682;BME280;5897;42.640;23.310;2022-10-16T12:47:21;94686.09;;;29.51;19.10
11682;BME280;5897;42.640;23.310;2022-10-16T12:49:49;94682.59;;;29.51;19.25
11682;BME280;5897;42.640;23.310;2022-10-16T12:52:35;94690.91;;;29.38;19.28
11682;BME280;5897;42.640;23.310;2022-10-16T12:55:05;94688.78;;;29.44;18.66
11682;BME280;5897;42.640;23.310;2022-10-16T12:57:43;94693.88;;;29.58;18.92
11682;BME280;5897;42.640;23.310;2022-10-16T13:00:22;94689.81;;;29.59;19.14
11682;BME280;5897;42.640;23.310;2022-10-16T13:03:22;94691.31;;;29.60;18.77
11682;BME280;5897;42.640;23.310;2022-10-16T13:06:01;94694.75;;;29.48;18.24
11682;BME280;5897;42.640;23.310;2022-10-16T13:08:43;94706.69;;;29.30;19.23
11682;BME280;5897;42.640;23.310;2022-10-16T13:11:21;94698.97;;;29.23;19.72
11682;BME280;5897;42.640;23.310;2022-10-16T13:14:01;94702.41;;;29.29;19.46
11682;BME280;5897;42.640;23.310;2022-10-16T13:16:40;94693.78;;;29.14;19.90
11682;BME280;5897;42.640;23.310;2022-10-16T13:19:20;94691.84;;;28.90;19.87
11682;BME280;5897;42.640;23.310;2022-10-16T13:21:56;94690.09;;;28.87;19.83